createdAt,value
2019-04-27T00:00:47.467Z,24.27
2019-04-27T00:03:20.442Z,24.40
2019-04-27T00:05:55.170Z,25.33
2019-04-27T00:08:39.138Z,25.53
2019-04-27T00:11:37.406Z,25.23
2019-04-27T00:14:06.547Z,24.87
2019-04-27T00:16:57.124Z,24.47
2019-04-27T00:19:47.024Z,26.17
2019-04-27T00:22:34.885Z,24.23
2019-04-27T00:25:04.967Z,25.13
2019-04-27T00:27:35.343Z,24.20
2019-04-27T00:30:05.729Z,26.40
2019-04-27T00:32:39.642Z,26.53
2019-04-27T00:35:10.184Z,25.93
2019-04-27T00:37:54.890Z,25.07
2019-04-27T00:40:30.218Z,25.00
2019-04-27T00:43:00.275Z,24.40
2019-04-27T00:45:30.720Z,23.17
2019-04-27T00:48:03.450Z,25.80
2019-04-27T00:50:33.885Z,25.10
2019-04-27T00:53:03.955Z,24.70
2019-04-27T00:55:35.834Z,22.73
2019-04-27T00:58:30.644Z,24.20
2019-04-27T01:01:23.361Z,22.70
2019-04-27T01:04:06.422Z,24.00
2019-04-27T01:06:36.409Z,23.87
2019-04-27T01:09:08.714Z,23.67
2019-04-27T01:11:40.311Z,23.07
2019-04-27T01:14:10.578Z,23.53
2019-04-27T01:16:40.551Z,23.73
2019-04-27T01:19:10.762Z,23.23
2019-04-27T01:21:40.742Z,21.70
2019-04-27T01:24:10.728Z,23.50
2019-04-27T01:27:05.942Z,21.97
2019-04-27T01:29:36.453Z,21.07
2019-04-27T01:32:08.652Z,22.70
2019-04-27T01:34:39.752Z,20.73
2019-04-27T01:37:09.759Z,21.40
2019-04-27T01:39:39.645Z,20.90
2019-04-27T01:42:10.625Z,21.03
2019-04-27T01:44:40.967Z,20.13
2019-04-27T01:47:10.964Z,19.37
2019-04-27T01:50:00.126Z,19.57
2019-04-27T01:52:30.864Z,19.10
2019-04-27T01:55:01.075Z,19.83
2019-04-27T01:57:32.388Z,17.43
2019-04-27T02:00:03.959Z,16.80
2019-04-27T02:02:41.907Z,16.90
2019-04-27T02:05:31.462Z,17.07
2019-04-27T02:08:01.594Z,18.37
2019-04-27T02:10:32.722Z,18.57
2019-04-27T02:13:03.065Z,17.87
2019-04-27T02:15:33.113Z,19.40
2019-04-27T02:18:03.438Z,17.30
2019-04-27T02:20:33.478Z,17.13
2019-04-27T02:23:03.760Z,17.80
2019-04-27T02:25:33.842Z,18.27
2019-04-27T02:28:11.148Z,16.20
2019-04-27T02:31:01.635Z,17.03
2019-04-27T02:33:40.409Z,16.70
2019-04-27T02:36:14.959Z,17.53
2019-04-27T02:38:42.338Z,16.27
2019-04-27T02:41:12.337Z,16.70
2019-04-27T02:43:53.552Z,15.93
2019-04-27T02:46:23.544Z,18.60
2019-04-27T02:49:00.249Z,15.70
2019-04-27T02:51:49.468Z,16.87
2019-04-27T02:54:20.414Z,17.03
2019-04-27T02:56:52.734Z,15.73
2019-04-27T02:59:22.654Z,13.27
2019-04-27T03:02:00.805Z,12.77
2019-04-27T03:04:30.853Z,12.07
2019-04-27T03:07:01.005Z,10.67
2019-04-27T03:09:31.012Z,9.70
2019-04-27T03:12:02.826Z,9.80
2019-04-27T03:14:50.799Z,9.17
2019-04-27T03:17:25.857Z,8.97
2019-04-27T03:20:14.033Z,9.53
2019-04-27T03:22:53.649Z,8.43
2019-04-27T03:25:45.637Z,8.50
2019-04-27T03:28:19.659Z,7.83
2019-04-27T03:30:52.114Z,8.00
2019-04-27T03:33:22.284Z,8.40
2019-04-27T03:35:52.974Z,7.73
2019-04-27T03:38:23.445Z,7.27
2019-04-27T03:40:53.476Z,7.90
2019-04-27T03:43:25.219Z,7.70
2019-04-27T03:45:55.373Z,9.50
2019-04-27T03:48:25.729Z,8.80
2019-04-27T03:51:10.703Z,8.70
2019-04-27T03:54:05.538Z,8.70
2019-04-27T03:56:59.073Z,8.23
2019-04-27T03:59:50.533Z,9.70
2019-04-27T04:02:19.897Z,11.10
2019-04-27T04:04:50.672Z,10.83
2019-04-27T04:07:20.807Z,11.10
2019-04-27T04:09:50.847Z,10.97
2019-04-27T04:12:32.486Z,12.50
2019-04-27T04:15:02.644Z,11.77
2019-04-27T04:17:33.836Z,10.60
2019-04-27T04:20:04.140Z,11.87
2019-04-27T04:22:34.158Z,11.00
2019-04-27T04:25:04.215Z,11.60
2019-04-27T04:27:34.209Z,12.50
2019-04-27T04:30:05.160Z,11.57
2019-04-27T04:32:35.203Z,11.17
2019-04-27T04:35:33.560Z,10.53
2019-04-27T04:38:03.564Z,10.77
2019-04-27T04:40:42.425Z,10.67
2019-04-27T04:43:25.626Z,10.50
2019-04-27T04:46:22.989Z,11.30
2019-04-27T04:48:52.806Z,10.70
2019-04-27T04:51:22.781Z,10.80
2019-04-27T04:53:52.762Z,10.37
2019-04-27T04:56:22.723Z,9.67
2019-04-27T04:58:52.723Z,9.80
2019-04-27T05:01:23.059Z,9.33
2019-04-27T05:03:53.934Z,10.67
2019-04-27T05:06:25.620Z,10.43
2019-04-27T05:08:55.618Z,10.77
2019-04-27T05:11:25.543Z,11.33
2019-04-27T05:13:55.539Z,11.73
2019-04-27T05:16:25.693Z,12.07
2019-04-27T05:18:55.769Z,11.57
2019-04-27T05:21:31.277Z,12.13
2019-04-27T05:24:01.505Z,11.03
2019-04-27T05:26:31.564Z,11.20
2019-04-27T05:29:01.474Z,11.53
2019-04-27T05:31:31.847Z,12.17
2019-04-27T05:34:01.853Z,11.40
2019-04-27T05:36:31.912Z,11.17
2019-04-27T05:39:01.825Z,11.00
2019-04-27T05:41:37.637Z,9.47
2019-04-27T05:44:29.992Z,8.93
2019-04-27T05:47:22.012Z,8.83
2019-04-27T05:50:18.369Z,9.57
2019-04-27T05:52:45.611Z,8.83
2019-04-27T05:55:15.866Z,8.33
2019-04-27T05:57:45.738Z,10.20
2019-04-27T06:00:18.677Z,10.23
2019-04-27T06:02:48.984Z,9.67
2019-04-27T06:05:19.102Z,10.70
2019-04-27T06:07:49.422Z,9.80
2019-04-27T06:10:19.812Z,9.97
2019-04-27T06:12:49.866Z,10.10
2019-04-27T06:15:19.947Z,8.80
2019-04-27T06:17:50.032Z,9.10
2019-04-27T06:20:19.995Z,7.00
2019-04-27T06:22:49.977Z,7.20
2019-04-27T06:25:21.446Z,6.57
2019-04-27T06:27:51.703Z,5.50
2019-04-27T06:30:21.678Z,4.20
2019-04-27T06:32:51.669Z,6.90
2019-04-27T06:35:21.642Z,6.60
2019-04-27T06:37:52.912Z,4.70
2019-04-27T06:40:22.915Z,3.80
2019-04-27T06:42:52.884Z,3.30
2019-04-27T06:45:22.910Z,3.37
2019-04-27T06:47:52.897Z,3.83
2019-04-27T06:50:23.215Z,4.40
2019-04-27T06:52:53.207Z,4.17
2019-04-27T06:55:23.173Z,4.80
2019-04-27T06:57:53.445Z,3.60
2019-04-27T07:00:23.431Z,3.57
2019-04-27T07:02:55.368Z,3.30
2019-04-27T07:05:25.064Z,3.27
2019-04-27T07:07:55.047Z,3.70
2019-04-27T07:10:25.001Z,3.40
2019-04-27T07:12:55.320Z,3.47
2019-04-27T07:15:25.379Z,2.60
2019-04-27T07:17:55.264Z,3.10
2019-04-27T07:20:25.148Z,3.47
2019-04-27T07:22:55.221Z,3.80
2019-04-27T07:25:25.186Z,2.80
2019-04-27T07:27:55.099Z,2.70
2019-04-27T07:30:25.079Z,3.20
2019-04-27T07:32:55.038Z,2.75
2019-04-27T07:35:25.989Z,3.00
2019-04-27T07:37:55.978Z,3.02
2019-04-27T07:40:26.016Z,2.77
2019-04-27T07:43:02.332Z,2.98
2019-04-27T07:45:35.612Z,2.70
2019-04-27T07:48:05.676Z,2.80
2019-04-27T07:50:35.758Z,3.20
2019-04-27T07:53:05.723Z,2.40
2019-04-27T07:55:35.954Z,2.95
2019-04-27T07:58:06.020Z,3.37
2019-04-27T08:00:36.093Z,3.40
2019-04-27T08:03:06.634Z,2.80
2019-04-27T08:05:36.910Z,3.60
2019-04-27T08:08:06.823Z,3.33
2019-04-27T08:10:36.884Z,3.47
2019-04-27T08:13:07.301Z,2.70
2019-04-27T08:15:39.469Z,2.87
2019-04-27T08:18:09.357Z,3.47
2019-04-27T08:20:39.393Z,3.47
2019-04-27T08:23:09.684Z,3.20
2019-04-27T08:25:51.695Z,3.62
2019-04-27T08:28:40.813Z,2.80
2019-04-27T08:31:21.164Z,3.00
2019-04-27T08:33:51.165Z,3.33
2019-04-27T08:36:21.131Z,3.33
2019-04-27T08:38:51.100Z,4.10
2019-04-27T08:41:21.267Z,3.30
2019-04-27T08:43:51.410Z,3.72
2019-04-27T08:46:21.398Z,4.03
2019-04-27T08:48:51.446Z,4.50
2019-04-27T08:51:21.332Z,4.30
2019-04-27T08:53:51.326Z,5.35
2019-04-27T08:56:21.302Z,4.75
2019-04-27T08:58:51.220Z,5.25
2019-04-27T09:01:21.582Z,5.22
2019-04-27T09:03:51.570Z,4.95
2019-04-27T09:06:21.545Z,4.70
2019-04-27T09:08:59.317Z,4.40
2019-04-27T09:11:37.052Z,3.15
2019-04-27T09:14:16.087Z,5.10
2019-04-27T09:17:02.681Z,4.85
2019-04-27T09:19:41.270Z,4.05
2019-04-27T09:22:15.955Z,5.80
2019-04-27T09:24:42.755Z,5.80
2019-04-27T09:27:12.662Z,6.17
2019-04-27T09:29:42.700Z,5.03
2019-04-27T09:32:12.771Z,4.53
2019-04-27T09:34:43.068Z,4.05
2019-04-27T09:37:13.072Z,4.70
2019-04-27T09:39:43.426Z,5.85
2019-04-27T09:42:13.791Z,4.65
2019-04-27T09:44:43.763Z,5.08
2019-04-27T09:47:13.753Z,4.33
2019-04-27T09:49:43.904Z,5.08
2019-04-27T09:52:23.604Z,4.20
2019-04-27T09:54:45.597Z,3.42
2019-04-27T09:57:16.041Z,2.95
2019-04-27T09:59:46.236Z,3.65
2019-04-27T10:02:16.553Z,3.75
2019-04-27T10:04:46.919Z,3.98
2019-04-27T10:07:16.847Z,4.42
2019-04-27T10:09:47.510Z,3.35
2019-04-27T10:12:19.502Z,4.20
2019-04-27T10:14:49.553Z,3.55
2019-04-27T10:17:19.669Z,3.52
2019-04-27T10:19:49.676Z,3.83
2019-04-27T10:22:19.724Z,4.00
2019-04-27T10:24:50.753Z,3.62
2019-04-27T10:27:20.739Z,4.08
2019-04-27T10:29:50.603Z,4.95
2019-04-27T10:32:20.592Z,4.28
2019-04-27T10:34:50.565Z,4.55
2019-04-27T10:37:20.578Z,4.28
2019-04-27T10:39:50.544Z,4.10
2019-04-27T10:42:20.745Z,4.85
2019-04-27T10:44:50.753Z,4.37
2019-04-27T10:47:20.714Z,5.40
2019-04-27T10:49:51.062Z,5.28
2019-04-27T10:52:21.037Z,4.83
2019-04-27T10:54:51.350Z,5.80
2019-04-27T10:57:21.292Z,5.17
2019-04-27T10:59:51.517Z,6.03
2019-04-27T11:02:21.496Z,6.17
2019-04-27T11:04:57.504Z,6.20
2019-04-27T11:07:32.227Z,2.90
2019-04-27T11:10:02.211Z,7.13
2019-04-27T11:12:32.329Z,6.85
2019-04-27T11:15:02.524Z,6.63
2019-04-27T11:17:32.670Z,4.90
2019-04-27T11:20:02.855Z,5.03
2019-04-27T11:22:33.204Z,5.60
2019-04-27T11:25:03.206Z,6.00
2019-04-27T11:27:33.241Z,5.77
2019-04-27T11:30:03.377Z,6.20
2019-04-27T11:32:35.578Z,5.53
2019-04-27T11:35:26.502Z,5.65
2019-04-27T11:37:57.185Z,4.60
2019-04-27T11:40:28.460Z,5.80
2019-04-27T11:42:58.435Z,5.40
2019-04-27T11:45:28.615Z,5.80
2019-04-27T11:47:58.738Z,4.87
2019-04-27T11:50:28.777Z,5.30
2019-04-27T11:52:58.742Z,3.80
2019-04-27T11:55:28.660Z,4.20
2019-04-27T11:57:58.623Z,4.67
2019-04-27T12:00:28.700Z,4.75
2019-04-27T12:02:58.742Z,4.87
2019-04-27T12:05:28.707Z,4.93
2019-04-27T12:07:58.645Z,4.33
2019-04-27T12:10:28.651Z,5.10
2019-04-27T12:12:58.834Z,4.92
2019-04-27T12:15:28.829Z,4.47
2019-04-27T12:17:58.802Z,5.53
2019-04-27T12:20:28.793Z,4.00
2019-04-27T12:22:58.782Z,4.27
2019-04-27T12:25:29.121Z,4.60
2019-04-27T12:28:08.526Z,4.15
2019-04-27T12:30:57.558Z,4.50
2019-04-27T12:33:27.676Z,4.50
2019-04-27T12:35:59.065Z,4.50
2019-04-27T12:38:29.055Z,4.95
2019-04-27T12:40:59.070Z,4.70
2019-04-27T12:43:30.094Z,4.30
2019-04-27T12:46:00.465Z,4.17
2019-04-27T12:48:30.510Z,4.17
2019-04-27T12:51:00.678Z,4.40
2019-04-27T12:53:56.035Z,4.70
2019-04-27T12:56:35.894Z,4.45
2019-04-27T12:59:27.735Z,4.27
2019-04-27T13:01:57.793Z,4.97
2019-04-27T13:04:27.683Z,4.80
2019-04-27T13:06:57.668Z,4.40
2019-04-27T13:09:27.969Z,4.87
2019-04-27T13:11:57.908Z,4.83
2019-04-27T13:14:27.893Z,4.43
2019-04-27T13:16:57.875Z,3.40
2019-04-27T13:19:28.214Z,3.43
2019-04-27T13:21:58.023Z,4.37
2019-04-27T13:24:28.244Z,2.63
2019-04-27T13:26:58.283Z,3.13
2019-04-27T13:29:28.617Z,3.70
2019-04-27T13:31:58.596Z,3.83
2019-04-27T13:34:28.666Z,4.07
2019-04-27T13:37:00.352Z,4.13
2019-04-27T13:39:30.401Z,4.80
2019-04-27T13:42:01.383Z,4.50
2019-04-27T13:44:31.697Z,3.70
2019-04-27T13:47:25.191Z,4.47
2019-04-27T13:50:17.227Z,4.50
2019-04-27T13:52:47.569Z,5.00
2019-04-27T13:55:17.850Z,5.80
2019-04-27T13:57:50.326Z,4.10
2019-04-27T14:00:19.672Z,5.07
2019-04-27T14:02:49.944Z,5.10
2019-04-27T14:05:19.906Z,5.37
2019-04-27T14:07:49.930Z,5.13
2019-04-27T14:10:20.464Z,5.10
2019-04-27T14:12:50.498Z,5.60
2019-04-27T14:15:20.565Z,5.07
2019-04-27T14:17:50.526Z,5.27
2019-04-27T14:20:20.879Z,4.83
2019-04-27T14:22:50.851Z,4.90
2019-04-27T14:25:20.846Z,4.83
2019-04-27T14:27:50.886Z,5.00
2019-04-27T14:30:20.958Z,4.07
2019-04-27T14:32:50.953Z,3.50
2019-04-27T14:35:21.004Z,4.10
2019-04-27T14:37:58.135Z,3.80
2019-04-27T14:40:28.835Z,5.20
2019-04-27T14:42:59.074Z,4.80
2019-04-27T14:45:29.055Z,5.07
2019-04-27T14:47:59.267Z,5.23
2019-04-27T14:50:29.164Z,4.87
2019-04-27T14:52:59.189Z,3.80
2019-04-27T14:55:30.130Z,5.10
2019-04-27T14:58:00.644Z,4.17
2019-04-27T15:00:31.002Z,5.10
2019-04-27T15:03:01.377Z,4.83
2019-04-27T15:05:31.468Z,4.70
2019-04-27T15:08:01.819Z,5.40
2019-04-27T15:10:36.106Z,4.93
2019-04-27T15:13:06.387Z,4.60
2019-04-27T15:15:37.438Z,5.00
2019-04-27T15:18:07.405Z,3.63
2019-04-27T15:20:43.908Z,4.60
2019-04-27T15:23:13.570Z,4.83
2019-04-27T15:25:46.826Z,4.50
2019-04-27T15:28:17.920Z,4.40
2019-04-27T15:31:23.590Z,4.07
2019-04-27T15:34:11.184Z,3.77
2019-04-27T15:37:07.915Z,4.07
2019-04-27T15:40:15.551Z,4.63
2019-04-27T15:42:52.911Z,4.40
2019-04-27T15:45:24.511Z,4.20
2019-04-27T15:47:55.038Z,4.80
2019-04-27T15:50:28.512Z,5.20
2019-04-27T15:52:57.005Z,5.17
2019-04-27T15:55:34.676Z,5.10
2019-04-27T15:57:58.706Z,5.40
2019-04-27T16:00:29.076Z,4.93
2019-04-27T16:03:00.072Z,5.27
2019-04-27T16:05:32.300Z,5.23
2019-04-27T16:08:06.287Z,5.33
2019-04-27T16:10:37.446Z,5.87
2019-04-27T16:13:07.296Z,5.30
2019-04-27T16:15:38.359Z,6.27
2019-04-27T16:18:09.074Z,6.63
2019-04-27T16:20:39.119Z,6.80
2019-04-27T16:23:09.304Z,7.30
2019-04-27T16:25:48.257Z,6.77
2019-04-27T16:28:13.323Z,7.00
2019-04-27T16:30:45.567Z,6.87
2019-04-27T16:33:19.669Z,7.33
2019-04-27T16:35:48.829Z,6.33
2019-04-27T16:38:57.248Z,6.10
2019-04-27T16:41:28.096Z,6.43
2019-04-27T16:44:02.183Z,7.10
2019-04-27T16:46:30.313Z,6.83
2019-04-27T16:49:00.542Z,7.17
2019-04-27T16:54:25.392Z,6.93
2019-04-27T16:57:02.441Z,6.20
2019-04-27T16:59:42.306Z,6.07
2019-04-27T17:23:49.513Z,5.20
2019-04-27T17:26:21.875Z,5.20
2019-04-27T17:28:56.563Z,5.07
2019-04-27T17:31:28.747Z,4.53
2019-04-27T17:34:01.099Z,4.43
2019-04-27T17:36:32.132Z,3.80
2019-04-27T17:39:02.277Z,4.27
2019-04-27T17:41:34.004Z,3.57
2019-04-27T17:44:03.961Z,4.50
2019-04-27T17:46:33.902Z,3.87
2019-04-27T17:49:03.982Z,4.67
2019-04-27T17:51:35.319Z,4.53
2019-04-27T17:54:08.065Z,4.90
2019-04-27T17:56:48.262Z,4.30
2019-04-27T17:59:10.306Z,3.47
2019-04-27T18:01:40.904Z,4.07
2019-04-27T18:04:10.860Z,3.40
2019-04-27T18:06:42.664Z,2.67
2019-04-27T18:09:18.591Z,3.07
2019-04-27T18:11:50.273Z,2.37
2019-04-27T18:14:20.308Z,2.93
2019-04-27T18:16:50.181Z,3.20
2019-04-27T18:19:31.623Z,2.80
2019-04-27T18:22:03.200Z,3.07
2019-04-27T18:24:47.431Z,2.67
2019-04-27T18:27:24.517Z,8.00
2019-04-27T18:30:06.588Z,3.83
2019-04-27T18:32:40.421Z,3.47
2019-04-27T18:35:11.022Z,5.20
2019-04-27T18:37:41.014Z,4.13
2019-04-27T18:40:11.173Z,4.67
2019-04-27T18:42:41.109Z,5.33
2019-04-27T18:45:12.132Z,3.97
2019-04-27T18:47:43.738Z,3.77
2019-04-27T18:50:21.793Z,3.50
2019-04-27T18:52:55.026Z,5.23
2019-04-27T18:55:25.251Z,5.10
2019-04-27T18:57:55.241Z,4.90
2019-04-27T19:00:25.438Z,4.30
2019-04-27T19:02:55.946Z,3.60
2019-04-27T19:05:38.017Z,3.70
2019-04-27T19:07:57.571Z,3.77
2019-04-27T19:10:28.194Z,3.80
2019-04-27T19:12:58.551Z,3.50
2019-04-27T19:15:28.676Z,3.43
2019-04-27T19:17:58.978Z,4.03
2019-04-27T19:20:29.228Z,3.70
2019-04-27T19:22:59.849Z,3.50
2019-04-27T19:25:48.296Z,3.70
2019-04-27T19:28:36.148Z,4.40
2019-04-27T19:31:09.550Z,4.10
2019-04-27T19:33:39.896Z,4.83
2019-04-27T19:36:09.770Z,4.07
2019-04-27T19:38:39.665Z,4.10
2019-04-27T19:41:10.027Z,4.87
2019-04-27T19:43:40.015Z,3.90
2019-04-27T19:46:10.438Z,4.13
2019-04-27T19:48:40.500Z,4.43
2019-04-27T19:51:10.471Z,4.63
2019-04-27T19:53:40.264Z,3.93
2019-04-27T19:56:10.500Z,3.83
2019-04-27T19:58:44.557Z,5.10
2019-04-27T20:01:21.560Z,4.87
2019-04-27T20:03:57.970Z,4.50
2019-04-27T20:06:29.130Z,3.97
2019-04-27T20:09:01.185Z,4.87
2019-04-27T20:11:33.266Z,4.60
2019-04-27T20:14:03.466Z,4.77
2019-04-27T20:16:33.446Z,5.03
2019-04-27T20:19:03.322Z,5.07
2019-04-27T20:21:33.112Z,5.10
2019-04-27T20:24:03.107Z,4.80
2019-04-27T20:26:33.452Z,5.07
2019-04-27T20:29:03.799Z,4.90
2019-04-27T20:31:34.309Z,5.60
2019-04-27T20:34:04.548Z,5.00
2019-04-27T20:36:34.847Z,5.00
2019-04-27T20:39:06.690Z,5.13
2019-04-27T20:41:37.578Z,5.00
2019-04-27T20:44:07.447Z,5.30
2019-04-27T20:46:37.245Z,5.17
2019-04-27T20:49:18.912Z,5.43
2019-04-27T20:51:58.049Z,5.67
2019-04-27T20:54:27.930Z,5.50
2019-04-27T20:56:58.051Z,5.63
2019-04-27T20:59:28.081Z,5.77
2019-04-27T21:02:01.056Z,6.87
2019-04-27T21:04:34.493Z,5.70
2019-04-27T21:07:04.657Z,6.83
2019-04-27T21:09:34.645Z,6.10
2019-04-27T21:12:04.585Z,7.13
2019-04-27T21:14:34.470Z,6.93
2019-04-27T21:17:04.475Z,7.08
2019-04-27T21:19:34.443Z,8.13
2019-04-27T21:22:04.490Z,8.33
2019-04-27T21:24:34.381Z,7.83
2019-04-27T21:27:04.507Z,8.87
2019-04-27T21:29:34.388Z,7.53
2019-04-27T21:32:07.870Z,9.40
2019-04-27T21:34:36.877Z,8.47
2019-04-27T21:37:06.846Z,8.73
2019-04-27T21:39:36.797Z,8.10
2019-04-27T21:42:06.655Z,8.77
2019-04-27T21:44:36.615Z,8.20
2019-04-27T21:47:06.577Z,8.50
2019-04-27T21:49:36.578Z,9.57
2019-04-27T21:52:14.587Z,9.80
2019-04-27T21:54:45.545Z,9.13
2019-04-27T21:57:15.478Z,9.40
2019-04-27T21:59:45.588Z,9.70
2019-04-27T22:02:15.783Z,9.20
2019-04-27T22:04:45.883Z,10.07
2019-04-27T22:07:16.030Z,9.30
2019-04-27T22:09:46.876Z,9.13
2019-04-27T22:12:16.864Z,8.67
2019-04-27T22:14:46.813Z,8.87
2019-04-27T22:17:16.778Z,8.80
2019-04-27T22:19:47.779Z,8.70
2019-04-27T22:22:25.158Z,8.23
2019-04-27T22:25:05.318Z,8.90
2019-04-27T22:27:35.409Z,8.00
2019-04-27T22:30:06.680Z,7.87
2019-04-27T22:32:36.743Z,7.90
2019-04-27T22:35:06.804Z,7.23
2019-04-27T22:37:36.702Z,7.70
2019-04-27T22:40:21.589Z,7.93
2019-04-27T22:43:02.339Z,7.77
2019-04-27T22:45:33.908Z,7.37
2019-04-27T22:48:03.912Z,7.03
2019-04-27T22:50:33.854Z,8.07
2019-04-27T22:53:03.836Z,7.30
2019-04-27T22:55:37.272Z,7.30
2019-04-27T22:58:14.768Z,8.17
2019-04-27T23:00:52.459Z,6.20
2019-04-27T23:03:25.613Z,6.23
2019-04-27T23:05:55.568Z,6.53
2019-04-27T23:08:25.810Z,6.00
2019-04-27T23:10:55.918Z,5.50
2019-04-27T23:13:25.963Z,6.20
2019-04-27T23:15:58.358Z,5.93
2019-04-27T23:18:28.298Z,5.37
2019-04-27T23:20:58.329Z,6.70
2019-04-27T23:23:28.295Z,8.17
2019-04-27T23:25:58.351Z,6.77
2019-04-27T23:28:28.141Z,7.47
2019-04-27T23:31:20.995Z,7.37
2019-04-27T23:33:52.639Z,6.55
2019-04-27T23:36:22.597Z,7.37
2019-04-27T23:38:52.550Z,7.60
2019-04-27T23:41:22.493Z,6.73
2019-04-27T23:43:52.462Z,7.10
2019-04-27T23:46:22.927Z,7.13
2019-04-27T23:48:53.896Z,7.37
2019-04-27T23:51:30.878Z,8.87
2019-04-27T23:54:01.683Z,8.25
2019-04-27T23:56:31.871Z,8.37
2019-04-27T23:59:01.915Z,8.77
